createdAt,value
2023-02-14T00:00:04.181Z,94.00
2023-02-14T00:00:40.157Z,93.90
2023-02-14T00:01:13.192Z,93.90
2023-02-14T00:01:48.063Z,93.90
2023-02-14T00:02:19.930Z,93.90
2023-02-14T00:02:51.825Z,94.00
2023-02-14T00:03:23.625Z,93.90
2023-02-14T00:04:00.504Z,94.40
2023-02-14T00:04:32.465Z,93.90
2023-02-14T00:05:04.572Z,94.10
2023-02-14T00:05:36.368Z,93.90
2023-02-14T00:06:10.906Z,94.10
2023-02-14T00:06:42.926Z,93.90
2023-02-14T00:07:14.836Z,94.50
2023-02-14T00:07:46.694Z,94.10
2023-02-14T00:08:18.527Z,93.90
2023-02-14T00:08:52.235Z,94.00
2023-02-14T00:09:24.340Z,94.50
2023-02-14T00:09:56.075Z,94.00
2023-02-14T00:10:27.835Z,94.20
2023-02-14T00:11:00.074Z,94.00
2023-02-14T00:11:32.627Z,93.40
2023-02-14T00:12:05.281Z,94.30
2023-02-14T00:12:37.007Z,94.00
2023-02-14T00:13:08.824Z,94.90
2023-02-14T00:14:00.742Z,94.90
2023-02-14T00:14:51.429Z,94.00
2023-02-14T00:15:23.588Z,94.10
2023-02-14T00:15:55.870Z,94.00
2023-02-14T00:16:27.819Z,94.80
2023-02-14T00:16:59.673Z,94.00
2023-02-14T00:17:31.469Z,94.10
2023-02-14T00:18:03.568Z,94.40
2023-02-14T00:18:54.088Z,94.00
2023-02-14T00:19:26.798Z,93.90
2023-02-14T00:19:58.604Z,94.80
2023-02-14T00:20:30.398Z,94.70
2023-02-14T00:21:02.598Z,93.90
2023-02-14T00:21:36.295Z,94.10
2023-02-14T00:22:08.226Z,94.10
2023-02-14T00:22:42.946Z,93.60
2023-02-14T00:23:14.685Z,94.00
2023-02-14T00:23:46.528Z,94.30
2023-02-14T00:24:24.415Z,94.20
2023-02-14T00:24:56.270Z,93.90
2023-02-14T00:25:28.120Z,94.20
2023-02-14T00:25:59.881Z,93.90
2023-02-14T00:26:31.720Z,94.90
2023-02-14T00:27:03.639Z,94.20
2023-02-14T00:27:35.593Z,93.80
2023-02-14T00:28:07.360Z,93.80
2023-02-14T00:28:39.308Z,94.30
2023-02-14T00:29:14.131Z,94.10
2023-02-14T00:29:45.916Z,94.30
2023-02-14T00:30:17.775Z,93.80
2023-02-14T00:30:49.582Z,93.80
2023-02-14T00:31:21.752Z,94.20
2023-02-14T00:31:54.127Z,93.90
2023-02-14T00:32:25.900Z,93.80
2023-02-14T00:32:58.620Z,93.90
2023-02-14T00:33:30.420Z,94.20
2023-02-14T00:34:02.313Z,93.80
2023-02-14T00:34:36.447Z,93.90
2023-02-14T00:35:09.897Z,94.20
2023-02-14T00:35:41.687Z,93.80
2023-02-14T00:36:13.867Z,93.80
2023-02-14T00:36:46.628Z,94.20
2023-02-14T00:37:20.782Z,93.90
2023-02-14T00:37:52.786Z,93.80
2023-02-14T00:38:24.511Z,94.00
2023-02-14T00:38:56.742Z,93.90
2023-02-14T00:39:28.510Z,93.90
2023-02-14T00:40:00.474Z,94.30
2023-02-14T00:40:32.256Z,94.00
2023-02-14T00:41:05.018Z,94.00
2023-02-14T00:41:37.318Z,93.80
2023-02-14T00:42:09.146Z,93.80
2023-02-14T00:42:41.075Z,94.60
2023-02-14T00:43:12.920Z,93.90
2023-02-14T00:43:46.888Z,94.60
2023-02-14T00:44:18.730Z,94.30
2023-02-14T00:44:50.488Z,94.20
2023-02-14T00:45:22.272Z,93.90
2023-02-14T00:45:54.066Z,93.90
2023-02-14T00:46:26.519Z,94.30
2023-02-14T00:46:58.283Z,94.20
2023-02-14T00:47:30.122Z,94.70
2023-02-14T00:48:01.911Z,93.80
2023-02-14T00:48:33.688Z,94.60
2023-02-14T00:49:05.951Z,94.70
2023-02-14T00:49:37.778Z,94.40
2023-02-14T00:50:10.049Z,94.10
2023-02-14T00:50:41.889Z,93.90
2023-02-14T00:51:15.240Z,94.50
2023-02-14T00:51:47.126Z,94.40
2023-02-14T00:52:19.227Z,94.00
2023-02-14T00:52:50.961Z,93.90
2023-02-14T00:53:22.708Z,94.50
2023-02-14T00:53:55.676Z,93.90
2023-02-14T00:54:27.644Z,94.00
2023-02-14T00:54:59.404Z,94.00
2023-02-14T00:55:31.222Z,94.70
2023-02-14T00:56:04.325Z,94.00
2023-02-14T00:56:36.301Z,93.90
2023-02-14T00:57:08.090Z,94.00
2023-02-14T00:57:41.257Z,94.00
2023-02-14T00:58:13.212Z,94.20
2023-02-14T00:58:46.239Z,94.10
2023-02-14T00:59:18.091Z,94.00
2023-02-14T00:59:49.971Z,94.20
2023-02-14T01:00:22.069Z,94.80
2023-02-14T01:00:54.316Z,94.00
2023-02-14T01:01:26.266Z,94.00
2023-02-14T01:01:58.394Z,94.10
2023-02-14T01:02:30.267Z,94.00
2023-02-14T01:03:02.085Z,94.00
2023-02-14T01:03:34.922Z,94.90
2023-02-14T01:04:07.774Z,94.40
2023-02-14T01:04:39.577Z,93.90
2023-02-14T01:05:11.670Z,94.40
2023-02-14T01:05:43.460Z,94.70
2023-02-14T01:06:15.928Z,94.00
2023-02-14T01:06:47.698Z,94.30
2023-02-14T01:07:19.492Z,94.40
2023-02-14T01:07:51.270Z,93.90
2023-02-14T01:08:23.707Z,94.60
2023-02-14T01:08:55.548Z,93.90
2023-02-14T01:09:27.390Z,94.60
2023-02-14T01:09:59.193Z,93.90
2023-02-14T01:10:31.019Z,94.60
2023-02-14T01:11:10.850Z,94.30
2023-02-14T01:11:42.623Z,93.90
2023-02-14T01:12:14.616Z,94.00
2023-02-14T01:12:47.445Z,94.40
2023-02-14T01:13:20.096Z,93.80
2023-02-14T01:13:54.196Z,94.40
2023-02-14T01:14:28.114Z,94.10
2023-02-14T01:14:59.919Z,93.70
2023-02-14T01:15:32.775Z,93.80
2023-02-14T01:16:07.940Z,93.80
2023-02-14T01:16:39.854Z,93.80
2023-02-14T01:17:11.715Z,93.80
2023-02-14T01:17:43.482Z,94.00
2023-02-14T01:18:16.058Z,93.80
2023-02-14T01:18:48.847Z,93.70
2023-02-14T01:19:21.349Z,93.60
2023-02-14T01:19:53.978Z,93.80
2023-02-14T01:20:26.487Z,93.60
2023-02-14T01:20:58.408Z,94.50
2023-02-14T01:21:33.706Z,93.70
2023-02-14T01:22:05.435Z,94.60
2023-02-14T01:22:38.236Z,94.00
2023-02-14T01:23:10.652Z,94.40
2023-02-14T01:23:43.725Z,94.10
2023-02-14T01:24:16.022Z,93.70
2023-02-14T01:24:48.273Z,94.50
2023-02-14T01:25:20.060Z,94.30
2023-02-14T01:25:51.816Z,93.50
2023-02-14T01:26:26.855Z,93.30
2023-02-14T01:26:58.656Z,94.30
2023-02-14T01:27:30.733Z,93.70
2023-02-14T01:28:02.536Z,94.40
2023-02-14T01:28:35.321Z,93.70
2023-02-14T01:29:07.352Z,94.50
2023-02-14T01:29:39.098Z,93.60
2023-02-14T01:30:11.987Z,93.80
2023-02-14T01:30:43.867Z,93.60
2023-02-14T01:31:19.774Z,93.90
2023-02-14T01:31:51.659Z,94.00
2023-02-14T01:32:23.482Z,94.10
2023-02-14T01:32:55.768Z,93.70
2023-02-14T01:33:27.588Z,94.10
2023-02-14T01:33:59.949Z,93.60
2023-02-14T01:34:33.832Z,94.00
2023-02-14T01:35:06.097Z,94.00
2023-02-14T01:35:38.734Z,93.60
2023-02-14T01:36:16.873Z,94.20
2023-02-14T01:36:48.689Z,93.60
2023-02-14T01:37:20.479Z,93.80
2023-02-14T01:37:52.233Z,93.70
2023-02-14T01:38:24.724Z,94.40
2023-02-14T01:38:59.187Z,94.30
2023-02-14T01:39:31.104Z,94.00
2023-02-14T01:40:03.372Z,94.00
2023-02-14T01:40:35.398Z,93.60
2023-02-14T01:41:09.526Z,94.30
2023-02-14T01:41:43.496Z,93.50
2023-02-14T01:42:15.237Z,93.90
2023-02-14T01:42:47.006Z,93.50
2023-02-14T01:43:18.813Z,94.40
2023-02-14T01:44:04.568Z,93.60
2023-02-14T01:44:36.320Z,93.50
2023-02-14T01:45:15.101Z,93.60
2023-02-14T01:45:47.012Z,94.30
2023-02-14T01:46:18.908Z,93.60
2023-02-14T01:46:50.686Z,93.50
2023-02-14T01:47:23.692Z,93.90
2023-02-14T01:47:58.668Z,94.40
2023-02-14T01:48:30.495Z,93.50
2023-02-14T01:49:13.276Z,94.30
2023-02-14T01:49:51.321Z,93.40
2023-02-14T01:50:30.052Z,94.30
2023-02-14T01:51:02.461Z,93.50
2023-02-14T01:51:40.901Z,93.90
2023-02-14T01:52:16.428Z,93.70
2023-02-14T01:52:58.956Z,93.90
2023-02-14T01:53:30.928Z,94.30
2023-02-14T01:54:05.904Z,93.90
2023-02-14T01:54:49.197Z,93.40
2023-02-14T01:55:27.881Z,93.70
2023-02-14T01:56:05.931Z,94.10
2023-02-14T01:56:49.351Z,93.30
2023-02-14T01:57:24.626Z,93.30
2023-02-14T01:58:20.623Z,93.80
2023-02-14T01:58:58.723Z,93.30
2023-02-14T01:59:36.812Z,93.40
2023-02-14T02:00:28.401Z,93.30
2023-02-14T02:01:01.005Z,93.40
2023-02-14T02:01:33.114Z,93.30
2023-02-14T02:02:07.234Z,93.50
2023-02-14T02:02:39.183Z,93.60
2023-02-14T02:03:13.367Z,94.20
2023-02-14T02:04:10.249Z,93.70
2023-02-14T02:04:46.133Z,93.30
2023-02-14T02:05:23.678Z,93.60
2023-02-14T02:06:05.155Z,93.30
2023-02-14T02:06:43.380Z,93.30
2023-02-14T02:07:20.685Z,94.20
2023-02-14T02:07:57.489Z,94.00
2023-02-14T02:08:37.820Z,93.30
2023-02-14T02:09:16.829Z,93.60
2023-02-14T02:10:02.760Z,93.40
2023-02-14T02:10:34.600Z,93.30
2023-02-14T02:11:06.384Z,94.10
2023-02-14T02:11:38.265Z,93.60
2023-02-14T02:12:10.351Z,93.20
2023-02-14T02:12:42.435Z,93.90
2023-02-14T02:13:18.915Z,93.30
2023-02-14T02:13:50.817Z,93.70
2023-02-14T02:14:23.398Z,93.20
2023-02-14T02:14:57.589Z,93.20
2023-02-14T02:15:35.130Z,93.50
2023-02-14T02:16:26.240Z,93.40
2023-02-14T02:17:46.293Z,93.20
2023-02-14T02:18:31.839Z,93.20
2023-02-14T02:19:20.583Z,93.10
2023-02-14T02:20:05.788Z,93.10
2023-02-14T02:20:45.982Z,93.50
2023-02-14T02:21:44.864Z,93.10
2023-02-14T02:22:42.272Z,93.10
2023-02-14T02:23:19.839Z,93.10
2023-02-14T02:24:12.381Z,94.00
2023-02-14T02:25:07.342Z,93.10
2023-02-14T02:26:05.297Z,93.20
2023-02-14T02:27:11.517Z,93.30
2023-02-14T02:28:03.459Z,93.00
2023-02-14T02:29:13.100Z,93.00
2023-02-14T02:30:10.316Z,93.00
2023-02-14T02:31:04.331Z,93.10
2023-02-14T02:32:04.590Z,93.00
2023-02-14T02:33:15.459Z,93.00
2023-02-14T02:34:11.212Z,93.00
2023-02-14T02:35:05.429Z,93.00
2023-02-14T02:35:43.314Z,93.00
2023-02-14T02:36:30.003Z,93.70
2023-02-14T02:37:31.243Z,93.00
2023-02-14T02:38:30.652Z,93.10
2023-02-14T02:39:23.653Z,93.10
2023-02-14T02:40:10.061Z,93.10
2023-02-14T02:41:12.713Z,92.90
2023-02-14T02:42:13.309Z,93.00
2023-02-14T02:42:57.102Z,93.00
2023-02-14T02:44:03.852Z,93.10
2023-02-14T02:45:00.265Z,93.00
2023-02-14T02:46:09.367Z,93.00
2023-02-14T02:46:52.230Z,92.90
2023-02-14T02:47:33.612Z,93.10
2023-02-14T02:48:16.797Z,93.70
2023-02-14T02:49:02.113Z,93.50
2023-02-14T02:50:22.289Z,93.50
2023-02-14T02:51:16.088Z,92.90
2023-02-14T02:52:13.271Z,92.90
2023-02-14T02:53:03.918Z,93.00
2023-02-14T02:53:47.909Z,93.50
2023-02-14T02:54:42.005Z,93.30
2023-02-14T02:55:57.097Z,93.00
2023-02-14T02:56:46.604Z,93.00
2023-02-14T02:57:35.399Z,93.10
2023-02-14T02:58:07.463Z,92.90
2023-02-14T02:58:46.555Z,92.90
2023-02-14T02:59:28.445Z,92.90
2023-02-14T03:00:05.201Z,92.90
2023-02-14T03:00:37.072Z,92.80
2023-02-14T03:01:15.219Z,93.50
2023-02-14T03:02:14.827Z,92.90
2023-02-14T03:03:11.305Z,92.90
2023-02-14T03:04:07.323Z,92.90
2023-02-14T03:04:54.610Z,93.50
2023-02-14T03:05:29.926Z,93.10
2023-02-14T03:06:02.963Z,92.90
2023-02-14T03:06:35.307Z,92.80
2023-02-14T03:07:26.879Z,93.40
2023-02-14T03:07:58.992Z,93.10
2023-02-14T03:08:31.039Z,93.60
2023-02-14T03:09:20.072Z,93.00
2023-02-14T03:09:58.363Z,92.80
2023-02-14T03:10:38.065Z,92.80
2023-02-14T03:11:12.953Z,93.50
2023-02-14T03:12:31.664Z,92.80
2023-02-14T03:13:21.719Z,92.80
2023-02-14T03:13:53.473Z,92.60
2023-02-14T03:14:50.590Z,93.80
2023-02-14T03:15:51.667Z,92.80
2023-02-14T03:16:34.764Z,92.80
2023-02-14T03:17:36.780Z,93.50
2023-02-14T03:18:42.160Z,92.80
2023-02-14T03:19:48.963Z,92.70
2023-02-14T03:20:44.829Z,92.70
2023-02-14T03:21:39.894Z,92.70
2023-02-14T03:22:29.884Z,92.80
2023-02-14T03:23:16.821Z,93.10
2023-02-14T03:24:08.274Z,93.00
2023-02-14T03:25:07.139Z,92.80
2023-02-14T03:25:43.903Z,92.80
2023-02-14T03:26:48.892Z,93.40
2023-02-14T03:27:43.455Z,92.80
2023-02-14T03:28:22.769Z,92.80
2023-02-14T03:29:31.456Z,93.10
2023-02-14T03:30:29.445Z,92.80
2023-02-14T03:31:26.559Z,92.80
2023-02-14T03:32:11.714Z,92.90
2023-02-14T03:32:52.152Z,92.80
2023-02-14T03:33:42.220Z,93.00
2023-02-14T03:34:24.024Z,92.80
2023-02-14T03:35:30.583Z,92.60
2023-02-14T03:36:10.850Z,92.70
2023-02-14T03:37:03.303Z,92.70
2023-02-14T03:38:16.257Z,92.60
2023-02-14T03:39:12.052Z,92.60
2023-02-14T03:39:59.370Z,92.70
2023-02-14T03:40:38.982Z,93.00
2023-02-14T03:41:19.616Z,92.70
2023-02-14T03:42:06.056Z,92.70
2023-02-14T03:42:48.874Z,92.60
2023-02-14T03:43:39.127Z,93.20
2023-02-14T03:44:17.174Z,92.70
2023-02-14T03:44:53.317Z,92.90
2023-02-14T03:45:42.700Z,93.60
2023-02-14T03:46:44.902Z,93.00
2023-02-14T03:47:23.011Z,92.60
2023-02-14T03:47:58.117Z,92.70
2023-02-14T03:48:33.057Z,92.70
2023-02-14T03:49:10.663Z,92.70
2023-02-14T03:49:59.435Z,92.90
2023-02-14T03:50:33.073Z,92.80
2023-02-14T03:51:07.824Z,93.40
2023-02-14T03:51:43.447Z,93.10
2023-02-14T03:52:17.955Z,93.40
2023-02-14T03:52:53.448Z,92.90
2023-02-14T03:53:29.651Z,93.00
2023-02-14T03:54:05.267Z,92.60
2023-02-14T03:54:37.695Z,92.60
2023-02-14T03:55:11.106Z,93.40
2023-02-14T03:56:03.498Z,93.00
2023-02-14T03:56:42.269Z,92.50
2023-02-14T03:57:18.689Z,93.60
2023-02-14T03:58:19.538Z,93.50
2023-02-14T03:58:56.167Z,92.60
2023-02-14T03:59:29.355Z,92.60
2023-02-14T04:00:01.478Z,92.80
2023-02-14T04:00:46.716Z,93.10
2023-02-14T04:01:33.084Z,93.30
2023-02-14T04:02:14.858Z,92.60
2023-02-14T04:02:54.601Z,93.10
2023-02-14T04:03:30.541Z,93.30
2023-02-14T04:04:05.621Z,93.60
2023-02-14T04:04:43.904Z,93.30
2023-02-14T04:05:22.584Z,93.00
2023-02-14T04:05:54.865Z,92.50
2023-02-14T04:06:26.901Z,92.70
2023-02-14T04:06:58.718Z,92.60
2023-02-14T04:07:30.494Z,92.30
2023-02-14T04:08:02.323Z,93.70
2023-02-14T04:08:34.345Z,93.00
2023-02-14T04:09:06.128Z,92.50
2023-02-14T04:09:38.025Z,93.20
2023-02-14T04:10:10.262Z,92.50
2023-02-14T04:10:43.497Z,92.60
2023-02-14T04:11:15.454Z,92.50
2023-02-14T04:11:50.281Z,93.70
2023-02-14T04:12:36.829Z,93.60
2023-02-14T04:13:09.449Z,92.60
2023-02-14T04:13:41.418Z,93.10
2023-02-14T04:14:13.394Z,93.40
2023-02-14T04:14:45.165Z,92.60
2023-02-14T04:15:17.938Z,93.50
2023-02-14T04:15:49.766Z,92.60
2023-02-14T04:16:21.614Z,93.60
2023-02-14T04:17:12.135Z,93.60
2023-02-14T04:18:02.456Z,93.40
2023-02-14T04:18:52.701Z,93.30
2023-02-14T04:19:24.580Z,92.60
2023-02-14T04:19:56.401Z,92.60
2023-02-14T04:20:28.607Z,93.40
2023-02-14T04:21:00.950Z,92.40
2023-02-14T04:21:32.958Z,92.70
2023-02-14T04:22:04.822Z,93.50
2023-02-14T04:22:36.682Z,93.00
2023-02-14T04:23:08.501Z,92.30
2023-02-14T04:23:40.317Z,92.60
2023-02-14T04:24:12.176Z,93.00
2023-02-14T04:24:44.268Z,92.90
2023-02-14T04:25:16.280Z,92.50
2023-02-14T04:25:48.046Z,92.60
2023-02-14T04:26:19.822Z,92.60
2023-02-14T04:26:54.389Z,92.80
2023-02-14T04:27:26.174Z,92.90
2023-02-14T04:27:57.992Z,93.40
2023-02-14T04:28:30.582Z,92.50
2023-02-14T04:29:02.397Z,93.10
2023-02-14T04:29:34.118Z,92.30
2023-02-14T04:30:06.768Z,93.30
2023-02-14T04:30:38.901Z,92.60
2023-02-14T04:31:11.398Z,92.90
2023-02-14T04:31:43.269Z,93.40
2023-02-14T04:32:23.135Z,92.90
2023-02-14T04:32:54.973Z,93.30
2023-02-14T04:33:26.777Z,93.10
2023-02-14T04:33:58.550Z,92.70
2023-02-14T04:34:30.298Z,92.70
2023-02-14T04:35:02.109Z,92.60
2023-02-14T04:35:34.591Z,93.50
2023-02-14T04:36:06.672Z,92.60
2023-02-14T04:36:38.437Z,92.50
2023-02-14T04:37:10.650Z,92.50
2023-02-14T04:37:42.465Z,93.40
2023-02-14T04:38:14.277Z,92.90
2023-02-14T04:38:46.005Z,93.40
2023-02-14T04:39:17.778Z,92.60
2023-02-14T04:39:49.516Z,92.50
2023-02-14T04:40:21.585Z,92.50
2023-02-14T04:40:53.377Z,92.50
2023-02-14T04:41:25.214Z,93.10
2023-02-14T04:41:57.686Z,92.60
2023-02-14T04:42:29.782Z,92.50
2023-02-14T04:43:01.621Z,92.60
2023-02-14T04:43:33.388Z,93.00
2023-02-14T04:44:05.420Z,92.50
2023-02-14T04:44:38.270Z,92.50
2023-02-14T04:45:10.403Z,93.20
2023-02-14T04:45:42.181Z,93.20
2023-02-14T04:46:14.050Z,92.50
2023-02-14T04:46:45.957Z,92.50
2023-02-14T04:47:18.039Z,92.50
2023-02-14T04:47:49.801Z,92.50
2023-02-14T04:48:21.571Z,92.50
2023-02-14T04:48:53.342Z,92.50
2023-02-14T04:49:25.205Z,93.30
2023-02-14T04:49:57.161Z,92.50
2023-02-14T04:50:28.948Z,92.50
2023-02-14T04:51:01.118Z,93.20
2023-02-14T04:51:33.096Z,93.40
2023-02-14T04:52:05.720Z,93.30
2023-02-14T04:52:37.777Z,92.50
2023-02-14T04:53:09.612Z,93.00
2023-02-14T04:53:41.419Z,93.30
2023-02-14T04:54:13.256Z,92.80
2023-02-14T04:54:45.079Z,93.10
2023-02-14T04:55:17.036Z,92.40
2023-02-14T04:55:49.899Z,92.60
2023-02-14T04:56:21.683Z,92.50
2023-02-14T04:56:53.462Z,93.00
2023-02-14T04:57:25.276Z,92.90
2023-02-14T04:57:57.144Z,92.50
2023-02-14T04:58:28.925Z,92.80
2023-02-14T04:59:00.913Z,93.00
2023-02-14T04:59:32.746Z,93.40
2023-02-14T05:00:05.832Z,92.50
2023-02-14T05:00:37.732Z,92.50
2023-02-14T05:01:09.584Z,92.50
2023-02-14T05:01:42.205Z,92.50
2023-02-14T05:02:14.355Z,92.40
2023-02-14T05:02:46.371Z,92.80
2023-02-14T05:03:18.219Z,93.00
2023-02-14T05:03:50.116Z,92.50
2023-02-14T05:04:22.108Z,92.40
2023-02-14T05:04:53.985Z,92.40
2023-02-14T05:05:25.825Z,93.10
2023-02-14T05:05:57.575Z,92.80
2023-02-14T05:06:29.382Z,92.60
2023-02-14T05:07:01.111Z,93.50
2023-02-14T05:07:32.893Z,92.90
2023-02-14T05:08:04.791Z,93.00
2023-02-14T05:08:36.623Z,92.50
2023-02-14T05:09:08.442Z,92.80
2023-02-14T05:09:40.275Z,92.60
2023-02-14T05:10:12.131Z,92.80
2023-02-14T05:10:44.152Z,92.50
2023-02-14T05:11:16.140Z,92.70
2023-02-14T05:11:47.916Z,92.50
2023-02-14T05:12:20.257Z,92.50
2023-02-14T05:12:52.024Z,92.40
2023-02-14T05:13:23.858Z,92.40
2023-02-14T05:13:55.727Z,92.50
2023-02-14T05:14:27.584Z,92.40
2023-02-14T05:14:59.478Z,92.90
2023-02-14T05:15:31.258Z,92.80
2023-02-14T05:16:03.182Z,92.60
2023-02-14T05:16:35.101Z,92.80
2023-02-14T05:17:06.913Z,93.40
2023-02-14T05:17:38.712Z,93.30
2023-02-14T05:18:10.567Z,93.10
2023-02-14T05:18:42.386Z,93.10
2023-02-14T05:19:14.256Z,93.00
2023-02-14T05:19:46.071Z,93.20
2023-02-14T05:20:18.210Z,92.60
2023-02-14T05:20:54.430Z,92.80
2023-02-14T05:21:26.285Z,92.50
2023-02-14T05:21:58.010Z,92.50
2023-02-14T05:22:29.794Z,93.20
2023-02-14T05:23:03.362Z,93.40
2023-02-14T05:23:35.193Z,92.80
2023-02-14T05:24:07.200Z,93.10
2023-02-14T05:24:39.148Z,92.60
2023-02-14T05:25:10.924Z,93.20
2023-02-14T05:25:43.357Z,93.10
2023-02-14T05:26:15.207Z,92.60
2023-02-14T05:26:47.087Z,93.30
2023-02-14T05:27:18.898Z,93.40
2023-02-14T05:27:50.782Z,92.70
2023-02-14T05:28:22.662Z,93.40
2023-02-14T05:28:54.421Z,92.90
2023-02-14T05:29:26.364Z,93.50
2023-02-14T05:29:58.198Z,92.60
2023-02-14T05:30:30.303Z,92.60
2023-02-14T05:31:02.976Z,92.60
2023-02-14T05:31:35.260Z,93.60
2023-02-14T05:32:07.230Z,92.60
2023-02-14T05:32:39.291Z,92.50
2023-02-14T05:33:11.564Z,93.10
2023-02-14T05:33:43.362Z,92.50
2023-02-14T05:34:15.141Z,92.60
2023-02-14T05:34:46.955Z,92.90
2023-02-14T05:35:18.870Z,93.30
2023-02-14T05:35:51.134Z,92.90
2023-02-14T05:36:22.877Z,92.40
2023-02-14T05:36:54.952Z,93.00
2023-02-14T05:37:26.739Z,92.60
2023-02-14T05:37:58.560Z,93.20
2023-02-14T05:38:31.149Z,93.10
2023-02-14T05:39:03.165Z,93.30
2023-02-14T05:39:34.997Z,92.60
2023-02-14T05:40:08.220Z,93.30
2023-02-14T05:40:41.178Z,92.60
2023-02-14T05:41:13.037Z,92.60
2023-02-14T05:41:44.854Z,92.60
2023-02-14T05:42:16.641Z,93.00
2023-02-14T05:42:48.373Z,92.60
2023-02-14T05:43:20.511Z,93.40
2023-02-14T05:43:52.271Z,93.20
2023-02-14T05:44:24.065Z,93.00
2023-02-14T05:44:55.837Z,92.50
2023-02-14T05:45:27.630Z,92.50
2023-02-14T05:45:59.553Z,92.90
2023-02-14T05:46:31.463Z,93.50
2023-02-14T05:47:03.312Z,93.00
2023-02-14T05:47:35.556Z,92.60
2023-02-14T05:48:07.381Z,93.40
2023-02-14T05:48:39.217Z,92.80
2023-02-14T05:49:11.016Z,93.40
2023-02-14T05:49:45.470Z,93.20
2023-02-14T05:50:18.012Z,92.60
2023-02-14T05:50:49.850Z,92.60
2023-02-14T05:51:21.737Z,92.60
2023-02-14T05:51:53.512Z,92.80
2023-02-14T05:52:25.548Z,92.90
2023-02-14T05:52:57.313Z,93.30
2023-02-14T05:53:29.106Z,92.50
2023-02-14T05:54:01.251Z,92.60
2023-02-14T05:54:33.136Z,93.70
2023-02-14T05:55:05.660Z,92.60
2023-02-14T05:55:37.562Z,92.50
2023-02-14T05:56:09.373Z,93.00
2023-02-14T05:56:41.199Z,93.30
2023-02-14T05:57:12.969Z,93.50
2023-02-14T05:57:44.799Z,93.30
2023-02-14T05:58:16.539Z,92.50
2023-02-14T05:58:48.289Z,92.50
2023-02-14T05:59:20.166Z,92.40
2023-02-14T05:59:51.984Z,92.50
2023-02-14T06:00:24.808Z,92.40
2023-02-14T06:00:58.066Z,92.80
2023-02-14T06:01:30.031Z,92.50
2023-02-14T06:02:01.816Z,92.50
2023-02-14T06:02:33.692Z,92.50
2023-02-14T06:03:05.479Z,92.90
2023-02-14T06:03:37.358Z,93.40
2023-02-14T06:04:09.205Z,92.50
2023-02-14T06:04:41.516Z,92.40
2023-02-14T06:05:14.786Z,92.50
2023-02-14T06:05:46.635Z,92.50
2023-02-14T06:06:18.412Z,92.80
2023-02-14T06:06:50.209Z,93.20
2023-02-14T06:07:21.927Z,92.50
2023-02-14T06:07:53.783Z,92.50
2023-02-14T06:08:25.575Z,93.10
2023-02-14T06:08:57.430Z,92.50
2023-02-14T06:09:29.394Z,93.30
2023-02-14T06:10:01.175Z,92.50
2023-02-14T06:10:32.952Z,92.60
2023-02-14T06:11:04.924Z,92.50
2023-02-14T06:11:36.673Z,92.50
2023-02-14T06:12:08.676Z,93.40
2023-02-14T06:12:40.546Z,92.50
2023-02-14T06:13:12.437Z,92.90
2023-02-14T06:13:44.237Z,92.60
2023-02-14T06:14:16.082Z,93.10
2023-02-14T06:14:47.836Z,92.60
2023-02-14T06:15:20.249Z,92.50
2023-02-14T06:15:52.027Z,92.90
2023-02-14T06:16:24.087Z,92.60
2023-02-14T06:16:56.005Z,93.30
2023-02-14T06:17:27.812Z,93.00
2023-02-14T06:17:59.623Z,92.60
2023-02-14T06:18:31.413Z,93.20
2023-02-14T06:19:03.369Z,92.50
2023-02-14T06:19:35.320Z,93.00
2023-02-14T06:20:09.557Z,93.30
2023-02-14T06:20:41.453Z,92.50
2023-02-14T06:21:13.225Z,92.50
2023-02-14T06:21:45.031Z,92.50
2023-02-14T06:22:16.903Z,93.10
2023-02-14T06:22:48.783Z,92.50
2023-02-14T06:23:20.703Z,93.40
2023-02-14T06:23:52.636Z,93.50
2023-02-14T06:24:24.496Z,93.40
2023-02-14T06:24:56.466Z,93.10
2023-02-14T06:25:28.523Z,93.40
2023-02-14T06:26:00.383Z,92.50
2023-02-14T06:26:33.288Z,92.60
2023-02-14T06:27:05.082Z,93.00
2023-02-14T06:27:36.878Z,92.50
2023-02-14T06:28:08.668Z,92.60
2023-02-14T06:28:40.674Z,93.40
2023-02-14T06:29:12.452Z,92.60
2023-02-14T06:29:44.270Z,92.90
2023-02-14T06:30:17.965Z,92.60
2023-02-14T06:30:49.872Z,92.70
2023-02-14T06:31:21.995Z,93.00
2023-02-14T06:31:53.894Z,92.60
2023-02-14T06:32:25.916Z,92.60
2023-02-14T06:32:57.718Z,93.10
2023-02-14T06:33:29.509Z,92.60
2023-02-14T06:34:02.206Z,92.60
2023-02-14T06:34:34.625Z,92.50
2023-02-14T06:35:07.295Z,92.60
2023-02-14T06:35:39.147Z,92.50
2023-02-14T06:36:10.967Z,92.60
2023-02-14T06:36:42.903Z,92.60
2023-02-14T06:37:14.682Z,93.30
2023-02-14T06:37:46.578Z,92.60
2023-02-14T06:38:18.300Z,93.40
2023-02-14T06:38:50.357Z,92.60
2023-02-14T06:39:22.158Z,92.50
2023-02-14T06:39:54.010Z,92.60
2023-02-14T06:40:25.788Z,93.20
2023-02-14T06:41:06.276Z,92.50
2023-02-14T06:41:38.221Z,92.50
2023-02-14T06:42:10.541Z,92.60
2023-02-14T06:42:42.562Z,92.60
2023-02-14T06:43:14.339Z,92.60
2023-02-14T06:43:50.124Z,93.10
2023-02-14T06:44:22.077Z,92.60
2023-02-14T06:44:53.886Z,92.60
2023-02-14T06:45:25.757Z,92.70
2023-02-14T06:45:57.743Z,93.50
2023-02-14T06:46:29.681Z,92.70
2023-02-14T06:47:01.745Z,92.70
2023-02-14T06:47:35.125Z,92.70
2023-02-14T06:48:07.136Z,93.50
2023-02-14T06:48:38.883Z,93.50
2023-02-14T06:49:11.038Z,93.10
2023-02-14T06:49:42.793Z,92.60
2023-02-14T06:50:14.517Z,93.40
2023-02-14T06:50:47.545Z,92.60
2023-02-14T06:51:19.421Z,92.50
2023-02-14T06:51:51.145Z,93.10
2023-02-14T06:52:22.885Z,92.50
2023-02-14T06:52:54.692Z,92.50
2023-02-14T06:53:26.637Z,92.50
2023-02-14T06:53:58.434Z,92.60
2023-02-14T06:54:32.926Z,93.40
2023-02-14T06:55:05.421Z,93.80
2023-02-14T06:55:37.179Z,92.60
2023-02-14T06:56:08.933Z,92.60
2023-02-14T06:56:40.855Z,93.00
2023-02-14T06:57:12.694Z,92.60
2023-02-14T06:57:45.666Z,92.60
2023-02-14T06:58:17.525Z,92.50
2023-02-14T06:58:49.312Z,92.50
2023-02-14T06:59:21.065Z,93.40
2023-02-14T06:59:52.828Z,92.50
2023-02-14T07:00:24.644Z,92.60
2023-02-14T07:00:57.561Z,92.90
2023-02-14T07:01:29.805Z,92.60
2023-02-14T07:02:01.689Z,92.60
2023-02-14T07:02:33.538Z,92.10
2023-02-14T07:03:05.989Z,92.50
2023-02-14T07:03:37.736Z,92.50
2023-02-14T07:04:09.552Z,92.50
2023-02-14T07:04:41.375Z,93.40
2023-02-14T07:05:15.262Z,92.60
2023-02-14T07:05:47.105Z,92.60
2023-02-14T07:06:18.827Z,93.50
2023-02-14T07:06:50.728Z,92.60
2023-02-14T07:07:22.526Z,93.10
2023-02-14T07:07:54.365Z,92.60
2023-02-14T07:08:26.484Z,92.60
2023-02-14T07:08:58.617Z,92.50
2023-02-14T07:09:30.426Z,92.50
2023-02-14T07:10:02.280Z,92.50
2023-02-14T07:10:34.853Z,92.50
2023-02-14T07:11:06.685Z,92.50
2023-02-14T07:11:38.419Z,93.10
2023-02-14T07:12:10.243Z,93.00
2023-02-14T07:12:42.311Z,92.60
2023-02-14T07:13:14.110Z,93.30
2023-02-14T07:13:47.995Z,93.40
2023-02-14T07:14:20.939Z,92.70
2023-02-14T07:14:52.800Z,92.60
2023-02-14T07:15:24.626Z,92.60
2023-02-14T07:15:56.785Z,92.50
2023-02-14T07:16:28.721Z,93.10
2023-02-14T07:17:00.516Z,92.60
2023-02-14T07:17:32.364Z,92.60
2023-02-14T07:18:04.347Z,92.60
2023-02-14T07:18:36.641Z,92.60
2023-02-14T07:19:08.468Z,93.40
2023-02-14T07:19:40.244Z,92.60
2023-02-14T07:20:13.136Z,92.60
2023-02-14T07:20:47.903Z,92.60
2023-02-14T07:21:19.678Z,92.60
2023-02-14T07:21:51.573Z,92.60
2023-02-14T07:22:23.456Z,92.60
2023-02-14T07:22:55.558Z,92.60
2023-02-14T07:23:27.686Z,92.60
2023-02-14T07:23:59.442Z,92.60
2023-02-14T07:24:31.196Z,93.40
2023-02-14T07:25:03.179Z,92.60
2023-02-14T07:25:35.287Z,92.60
2023-02-14T07:26:07.177Z,93.50
2023-02-14T07:26:38.965Z,92.60
2023-02-14T07:27:10.810Z,92.50
2023-02-14T07:27:43.044Z,93.20
2023-02-14T07:28:14.803Z,92.70
2023-02-14T07:28:49.025Z,92.90
2023-02-14T07:29:20.919Z,92.60
2023-02-14T07:29:52.728Z,92.60
2023-02-14T07:30:25.194Z,92.60
2023-02-14T07:31:01.665Z,93.10
2023-02-14T07:31:33.947Z,92.60
2023-02-14T07:32:06.077Z,92.60
2023-02-14T07:32:39.321Z,93.40
2023-02-14T07:33:11.191Z,92.50
2023-02-14T07:33:43.032Z,93.30
2023-02-14T07:34:14.863Z,92.60
2023-02-14T07:34:47.812Z,93.30
2023-02-14T07:35:19.700Z,92.60
2023-02-14T07:35:51.741Z,92.60
2023-02-14T07:36:23.507Z,92.50
2023-02-14T07:36:55.256Z,93.20
2023-02-14T07:37:26.997Z,92.60
2023-02-14T07:37:59.132Z,93.00